createdAt,value
2018-10-05T00:01:16.900Z,101412.13
2018-10-05T00:03:46.837Z,101410.98
2018-10-05T00:06:16.785Z,101403.51
2018-10-05T00:08:46.742Z,101398.23
2018-10-05T00:11:16.692Z,101397.98
2018-10-05T00:13:46.608Z,101395.80
2018-10-05T00:16:16.543Z,101394.42
2018-10-05T00:18:46.447Z,101391.42
2018-10-05T00:21:16.433Z,101389.80
2018-10-05T00:23:46.397Z,101381.81
2018-10-05T00:26:16.369Z,101386.55
2018-10-05T00:28:46.315Z,101389.05
2018-10-05T00:31:16.239Z,101376.94
2018-10-05T00:33:46.183Z,101378.91
2018-10-05T00:36:16.168Z,101376.69
2018-10-05T00:38:46.117Z,101377.03
2018-10-05T00:41:16.089Z,101375.40
2018-10-05T00:43:45.985Z,101369.39
2018-10-05T00:46:15.944Z,101376.53
2018-10-05T00:48:45.914Z,101367.52
2018-10-05T00:51:15.801Z,101365.89
2018-10-05T00:53:45.755Z,101362.05
2018-10-05T00:56:15.724Z,101359.63
2018-10-05T00:58:45.598Z,101360.77
2018-10-05T01:01:15.559Z,101359.44
2018-10-05T01:03:45.551Z,101355.64
2018-10-05T01:06:15.527Z,101356.28
2018-10-05T01:08:45.441Z,101343.34
2018-10-05T01:11:15.454Z,101349.98
2018-10-05T01:13:45.318Z,101343.73
2018-10-05T01:16:15.204Z,101341.55
2018-10-05T01:18:45.133Z,101348.75
2018-10-05T01:21:15.123Z,101348.02
2018-10-05T01:23:45.079Z,101347.77
2018-10-05T01:26:15.056Z,101338.99
2018-10-05T01:28:45.112Z,101343.47
2018-10-05T01:31:15.007Z,101334.45
2018-10-05T01:33:44.970Z,101331.20
2018-10-05T01:36:14.864Z,101325.19
2018-10-05T01:38:44.823Z,101313.96
2018-10-05T01:41:14.710Z,101317.30
2018-10-05T01:43:44.668Z,101318.73
2018-10-05T01:46:14.596Z,101319.04
2018-10-05T01:48:44.602Z,101314.98
2018-10-05T01:51:14.469Z,101305.97
2018-10-05T01:53:44.449Z,101305.70
2018-10-05T01:56:14.454Z,101305.20
2018-10-05T01:58:44.379Z,101304.95
2018-10-05T02:01:14.312Z,101294.23
2018-10-05T02:03:44.276Z,101297.81
2018-10-05T02:06:14.291Z,101300.33
2018-10-05T02:08:44.248Z,101292.94
2018-10-05T02:11:14.123Z,101300.96
2018-10-05T02:13:44.089Z,101293.82
2018-10-05T02:16:13.963Z,101294.37
2018-10-05T02:18:43.935Z,101301.27
2018-10-05T02:21:13.895Z,101296.33
2018-10-05T02:23:43.873Z,101295.75
2018-10-05T02:26:13.790Z,101294.95
2018-10-05T02:28:43.720Z,101290.23
2018-10-05T02:31:13.615Z,101281.41
2018-10-05T02:33:43.596Z,101275.89
2018-10-05T02:36:13.540Z,101281.66
2018-10-05T02:38:43.470Z,101276.64
2018-10-05T02:41:13.444Z,101276.64
2018-10-05T02:43:43.334Z,101261.72
2018-10-05T02:46:13.250Z,101266.11
2018-10-05T02:48:43.243Z,101268.86
2018-10-05T02:51:13.189Z,101262.22
2018-10-05T02:53:43.103Z,101267.73
2018-10-05T02:56:13.080Z,101259.46
2018-10-05T02:58:43.038Z,101263.59
2018-10-05T03:01:29.436Z,101253.95
2018-10-05T03:03:59.371Z,101253.95
2018-10-05T03:06:29.338Z,101251.19
2018-10-05T03:08:59.312Z,101247.05
2018-10-05T03:11:29.190Z,101250.94
2018-10-05T03:13:59.142Z,101249.31
2018-10-05T03:16:29.159Z,101244.94
2018-10-05T03:18:59.118Z,101243.06
2018-10-05T03:21:29.014Z,101243.06
2018-10-05T03:23:58.948Z,101234.30
2018-10-05T03:26:28.926Z,101237.05
2018-10-05T03:28:58.924Z,101240.36
2018-10-05T03:31:28.936Z,101242.88
2018-10-05T03:33:58.875Z,101248.97
2018-10-05T03:36:28.750Z,101244.83
2018-10-05T03:38:58.690Z,101239.87
2018-10-05T03:41:28.651Z,101232.18
2018-10-05T03:43:58.568Z,101235.19
2018-10-05T03:46:28.530Z,101225.53
2018-10-05T03:48:58.460Z,101230.16
2018-10-05T03:51:28.431Z,101223.27
2018-10-05T03:53:58.414Z,101216.93
2018-10-05T03:56:28.350Z,101215.55
2018-10-05T03:58:58.328Z,101217.51
2018-10-05T04:01:28.242Z,101212.05
2018-10-05T04:03:58.209Z,101210.43
2018-10-05T04:06:28.116Z,101208.56
2018-10-05T04:08:58.076Z,101205.89
2018-10-05T04:11:28.042Z,101208.95
2018-10-05T04:13:58.006Z,101212.53
2018-10-05T04:16:27.925Z,101204.27
2018-10-05T04:18:57.903Z,101197.62
2018-10-05T04:21:27.879Z,101193.98
2018-10-05T04:23:57.882Z,101188.72
2018-10-05T04:26:27.737Z,101183.94
2018-10-05T04:28:57.698Z,101178.67
2018-10-05T04:31:27.665Z,101178.92
2018-10-05T04:33:57.602Z,101179.95
2018-10-05T04:36:27.590Z,101176.66
2018-10-05T04:38:57.550Z,101176.90
2018-10-05T04:41:27.480Z,101183.20
2018-10-05T04:43:57.399Z,101167.49
2018-10-05T04:46:27.368Z,101166.61
2018-10-05T04:48:57.332Z,101167.09
2018-10-05T04:51:27.356Z,101171.72
2018-10-05T04:53:57.309Z,101167.52
2018-10-05T04:56:27.290Z,101163.09
2018-10-05T04:58:58.082Z,101165.75
2018-10-05T05:01:28.005Z,101169.82
2018-10-05T05:03:57.924Z,101163.17
2018-10-05T05:06:27.899Z,101160.91
2018-10-05T05:08:57.843Z,101154.50
2018-10-05T05:11:27.797Z,101149.23
2018-10-05T05:13:57.822Z,101153.86
2018-10-05T05:16:27.739Z,101152.72
2018-10-05T05:18:57.678Z,101153.55
2018-10-05T05:21:27.635Z,101144.14
2018-10-05T05:23:57.722Z,101143.56
2018-10-05T05:26:27.806Z,101141.53
2018-10-05T05:28:57.962Z,101147.29
2018-10-05T05:31:27.969Z,101150.53
2018-10-05T05:33:58.004Z,101146.89
2018-10-05T05:36:28.062Z,101143.17
2018-10-05T05:38:58.001Z,101145.59
2018-10-05T05:41:28.000Z,101152.12
2018-10-05T05:43:57.867Z,101157.53
2018-10-05T05:46:27.821Z,101161.12
2018-10-05T05:48:57.834Z,101154.22
2018-10-05T05:51:27.751Z,101160.23
2018-10-05T05:53:57.725Z,101146.44
2018-10-05T05:56:27.693Z,101146.67
2018-10-05T05:58:57.601Z,101149.68
2018-10-05T06:01:27.600Z,101157.38
2018-10-05T06:03:57.593Z,101156.58
2018-10-05T06:06:27.445Z,101156.48
2018-10-05T06:08:57.423Z,101154.55
2018-10-05T06:11:27.347Z,101155.59
2018-10-05T06:13:57.257Z,101151.14
2018-10-05T06:16:27.219Z,101153.01
2018-10-05T06:18:57.034Z,101152.36
2018-10-05T06:21:27.325Z,101147.33
2018-10-05T06:23:57.239Z,101143.91
2018-10-05T06:26:27.186Z,101145.67
2018-10-05T06:28:57.138Z,101152.75
2018-10-05T06:31:27.097Z,101142.13
2018-10-05T06:33:56.937Z,101148.52
2018-10-05T06:36:26.839Z,101144.44
2018-10-05T06:38:56.835Z,101144.52
2018-10-05T06:41:26.786Z,101152.80
2018-10-05T06:43:56.713Z,101148.72
2018-10-05T06:46:26.686Z,101150.64
2018-10-05T06:48:56.685Z,101150.95
2018-10-05T06:51:26.627Z,101151.52
2018-10-05T06:53:56.582Z,101144.56
2018-10-05T06:56:26.556Z,101133.03
2018-10-05T06:58:56.492Z,101145.70
2018-10-05T07:01:26.444Z,101150.38
2018-10-05T07:03:56.404Z,101153.08
2018-10-05T07:06:26.339Z,101151.66
2018-10-05T07:08:56.243Z,101153.02
2018-10-05T07:11:26.266Z,101145.48
2018-10-05T07:13:56.331Z,101153.94
2018-10-05T07:16:26.298Z,101147.80
2018-10-05T07:18:56.205Z,101148.79
2018-10-05T07:21:26.192Z,101145.63
2018-10-05T07:23:56.095Z,101143.83
2018-10-05T07:26:26.247Z,101140.64
2018-10-05T07:28:56.244Z,101139.94
2018-10-05T07:31:26.137Z,101133.98
2018-10-05T07:33:55.968Z,101135.17
2018-10-05T07:36:25.964Z,101141.34
2018-10-05T07:38:55.793Z,101138.14
2018-10-05T07:41:25.779Z,101134.92
2018-10-05T07:43:55.640Z,101139.93
2018-10-05T07:46:25.680Z,101143.54
2018-10-05T07:48:55.678Z,101141.70
2018-10-05T07:51:25.689Z,101142.30
2018-10-05T07:53:55.570Z,101143.48
2018-10-05T07:56:25.525Z,101145.23
2018-10-05T07:58:55.429Z,101133.89
2018-10-05T08:01:25.442Z,101139.80
2018-10-05T08:03:55.371Z,101127.38
2018-10-05T08:06:25.257Z,101133.84
2018-10-05T08:08:55.096Z,101132.22
2018-10-05T08:11:24.977Z,101133.11
2018-10-05T08:13:54.922Z,101129.47
2018-10-05T08:16:24.857Z,101136.73
2018-10-05T08:18:54.723Z,101134.84
2018-10-05T08:21:24.737Z,101131.58
2018-10-05T08:23:54.808Z,101135.03
2018-10-05T08:26:24.768Z,101130.34
2018-10-05T08:28:54.746Z,101136.43
2018-10-05T08:31:24.692Z,101128.13
2018-10-05T08:33:54.617Z,101128.05
2018-10-05T08:36:24.516Z,101123.36
2018-10-05T08:38:54.506Z,101125.60
2018-10-05T08:41:24.368Z,101125.28
2018-10-05T08:43:54.374Z,101123.02
2018-10-05T08:46:24.299Z,101113.39
2018-10-05T08:48:54.150Z,101109.47
2018-10-05T08:51:24.110Z,101103.55
2018-10-05T08:53:54.057Z,101092.05
2018-10-05T08:56:23.988Z,101093.69
2018-10-05T08:58:53.946Z,101084.36
2018-10-05T09:01:23.928Z,101080.64
2018-10-05T09:03:53.968Z,101077.50
2018-10-05T09:06:23.927Z,101079.33
2018-10-05T09:08:53.867Z,101078.38
2018-10-05T09:11:23.839Z,101074.58
2018-10-05T09:13:53.780Z,101076.62
2018-10-05T09:16:23.710Z,101073.59
2018-10-05T09:18:53.772Z,101058.58
2018-10-05T09:21:23.953Z,101061.48
2018-10-05T09:23:54.070Z,101062.03
2018-10-05T09:26:24.708Z,101052.77
2018-10-05T09:28:54.592Z,101048.51
2018-10-05T09:31:24.554Z,101046.61
2018-10-05T09:33:54.452Z,101044.39
2018-10-05T09:36:24.412Z,101037.51
2018-10-05T09:38:54.400Z,101033.23
2018-10-05T09:41:24.458Z,101027.38
2018-10-05T09:43:54.523Z,101024.90
2018-10-05T09:46:24.450Z,101015.27
2018-10-05T09:48:54.441Z,101014.17
2018-10-05T09:51:24.381Z,101009.70
2018-10-05T09:53:54.284Z,101011.62
2018-10-05T09:56:24.242Z,101005.14
2018-10-05T09:58:54.203Z,100999.26
2018-10-05T10:01:29.113Z,100996.13
2018-10-05T10:03:59.074Z,100995.22
2018-10-05T10:06:29.033Z,100993.31
2018-10-05T10:08:59.106Z,100993.98
2018-10-05T10:11:29.041Z,100990.44
2018-10-05T10:13:59.096Z,100978.30
2018-10-05T10:16:28.987Z,100982.77
2018-10-05T10:18:58.953Z,100976.23
2018-10-05T10:21:28.920Z,100971.71
2018-10-05T10:23:58.890Z,100970.57
2018-10-05T10:26:28.857Z,100967.84
2018-10-05T10:28:58.945Z,100960.89
2018-10-05T10:31:28.900Z,100950.36
2018-10-05T10:33:58.856Z,100954.80
2018-10-05T10:36:28.857Z,100952.45
2018-10-05T10:38:58.833Z,100941.48
2018-10-05T10:41:28.760Z,100936.31
2018-10-05T10:43:58.720Z,100937.95
2018-10-05T10:46:28.754Z,100932.81
2018-10-05T10:48:58.734Z,100926.42
2018-10-05T10:51:28.723Z,100922.63
2018-10-05T10:53:58.675Z,100916.43
2018-10-05T10:56:28.611Z,100912.84
2018-10-05T10:58:58.545Z,100913.85
2018-10-05T11:01:28.522Z,100914.86
2018-10-05T11:03:58.535Z,100905.48
2018-10-05T11:06:28.400Z,100895.86
2018-10-05T11:08:58.310Z,100894.27
2018-10-05T11:11:28.236Z,100891.08
2018-10-05T11:13:58.143Z,100886.06
2018-10-05T11:16:28.135Z,100884.30
2018-10-05T11:18:58.037Z,100867.08
2018-10-05T11:21:28.033Z,100869.48
2018-10-05T11:23:57.956Z,100858.64
2018-10-05T11:26:27.821Z,100857.04
2018-10-05T11:28:57.774Z,100846.27
2018-10-05T11:31:27.726Z,100850.66
2018-10-05T11:33:57.709Z,100845.66
2018-10-05T11:36:27.645Z,100845.83
2018-10-05T11:38:57.572Z,100841.63
2018-10-05T11:41:27.545Z,100843.02
2018-10-05T11:43:57.458Z,100836.83
2018-10-05T11:46:27.536Z,100829.39
2018-10-05T11:48:57.420Z,100824.14
2018-10-05T11:51:27.310Z,100822.33
2018-10-05T11:53:57.263Z,100813.09
2018-10-05T11:56:27.227Z,100816.09
2018-10-05T11:58:57.145Z,100810.26
2018-10-05T12:01:27.162Z,100807.84
2018-10-05T12:03:57.148Z,100798.38
2018-10-05T12:06:27.079Z,100800.79
2018-10-05T12:08:57.264Z,100790.34
2018-10-05T12:11:27.250Z,100795.14
2018-10-05T12:13:57.174Z,100791.94
2018-10-05T12:16:27.156Z,100788.07
2018-10-05T12:18:57.128Z,100784.05
2018-10-05T12:21:27.128Z,100789.83
2018-10-05T12:23:57.039Z,100780.97
2018-10-05T12:26:27.039Z,100779.36
2018-10-05T12:28:57.025Z,100771.50
2018-10-05T12:31:27.073Z,100769.08
2018-10-05T12:33:56.985Z,100765.05
2018-10-05T12:36:26.847Z,100759.58
2018-10-05T12:38:56.801Z,100747.52
2018-10-05T12:41:26.731Z,100758.13
2018-10-05T12:43:56.591Z,100752.25
2018-10-05T12:46:26.563Z,100741.97
2018-10-05T12:48:56.519Z,100750.22
2018-10-05T12:51:26.501Z,100740.95
2018-10-05T12:53:56.418Z,100737.31
2018-10-05T12:56:26.336Z,100750.73
2018-10-05T12:58:56.324Z,100740.45
2018-10-05T13:01:26.402Z,100740.44
2018-10-05T13:03:56.332Z,100728.35
2018-10-05T13:06:26.338Z,100723.30
2018-10-05T13:08:56.294Z,100721.25
2018-10-05T13:11:26.272Z,100719.66
2018-10-05T13:13:56.195Z,100717.03
2018-10-05T13:16:26.154Z,100707.19
2018-10-05T13:18:56.029Z,100706.80
2018-10-05T13:21:25.952Z,100700.99
2018-10-05T13:23:55.846Z,100693.77
2018-10-05T13:26:25.831Z,100683.73
2018-10-05T13:28:55.811Z,100690.58
2018-10-05T13:31:25.800Z,100680.53
2018-10-05T13:33:55.839Z,100684.13
2018-10-05T13:36:25.719Z,100675.94
2018-10-05T13:38:57.301Z,100674.34
2018-10-05T13:41:27.883Z,100671.34
2018-10-05T13:43:57.806Z,100673.34
2018-10-05T13:46:27.815Z,100672.55
2018-10-05T13:48:57.739Z,100664.33
2018-10-05T13:51:27.732Z,100663.36
2018-10-05T13:53:57.620Z,100659.14
2018-10-05T13:56:27.519Z,100658.95
2018-10-05T13:58:57.996Z,100650.89
2018-10-05T14:01:27.963Z,100647.64
2018-10-05T14:03:57.972Z,100644.43
2018-10-05T14:06:28.144Z,100638.19
2018-10-05T14:08:58.118Z,100641.81
2018-10-05T14:11:28.057Z,100638.75
2018-10-05T14:13:58.013Z,100638.73
2018-10-05T14:16:27.969Z,100633.67
2018-10-05T14:18:58.148Z,100632.45
2018-10-05T14:21:28.361Z,100628.05
2018-10-05T14:23:58.315Z,100622.04
2018-10-05T14:26:28.288Z,100613.22
2018-10-05T14:28:58.261Z,100611.81
2018-10-05T14:31:28.401Z,100609.59
2018-10-05T14:33:58.391Z,100606.00
2018-10-05T14:36:28.301Z,100601.41
2018-10-05T14:38:58.278Z,100599.19
2018-10-05T14:41:28.207Z,100587.34
2018-10-05T14:43:58.174Z,100590.53
2018-10-05T14:46:28.110Z,100585.09
2018-10-05T14:48:58.093Z,100579.47
2018-10-05T14:51:28.032Z,100570.41
2018-10-05T14:53:57.961Z,100576.66
2018-10-05T14:56:28.102Z,100565.44
2018-10-05T14:58:58.065Z,100564.27
2018-10-05T15:01:28.060Z,100560.46
2018-10-05T15:03:58.034Z,100556.87
2018-10-05T15:06:28.045Z,100557.89
2018-10-05T15:08:58.035Z,100552.08
2018-10-05T15:11:28.540Z,100548.27
2018-10-05T15:13:58.505Z,100547.30
2018-10-05T15:16:28.465Z,100547.52
2018-10-05T15:18:58.427Z,100541.76
2018-10-05T15:21:28.461Z,100541.34
2018-10-05T15:23:58.521Z,100542.16
2018-10-05T15:26:28.503Z,100543.83
2018-10-05T15:28:58.461Z,100538.48
2018-10-05T15:31:28.423Z,100536.13
2018-10-05T15:33:58.354Z,100533.58
2018-10-05T15:36:28.365Z,100531.63
2018-10-05T15:38:58.397Z,100525.67
2018-10-05T15:41:28.304Z,100526.91
2018-10-05T15:43:58.303Z,100526.39
2018-10-05T15:47:06.680Z,100522.44
2018-10-05T15:49:37.183Z,100523.50
2018-10-05T15:52:07.136Z,100526.16
2018-10-05T15:54:37.700Z,100525.58
2018-10-05T15:57:07.843Z,100534.25
2018-10-05T15:59:38.183Z,100532.91
2018-10-05T16:02:08.139Z,100525.94
2018-10-05T16:04:38.980Z,100531.80
2018-10-05T16:07:08.927Z,100535.69
2018-10-05T16:09:38.895Z,100534.92
2018-10-05T16:12:08.841Z,100529.94
2018-10-05T16:14:39.640Z,100536.03
2018-10-05T16:17:09.620Z,100532.06
2018-10-05T16:19:39.864Z,100540.48
2018-10-05T16:22:09.991Z,100544.53
2018-10-05T16:24:44.034Z,100545.78
2018-10-05T16:27:14.460Z,100539.78
2018-10-05T16:29:44.385Z,100542.64
2018-10-05T16:32:14.461Z,100534.85
2018-10-05T16:34:44.373Z,100538.49
2018-10-05T16:37:14.440Z,100535.52
2018-10-05T16:42:06.307Z,100531.11
2018-10-05T16:44:36.283Z,100524.34
2018-10-05T16:47:06.329Z,100527.16
2018-10-05T16:49:36.303Z,100528.77
2018-10-05T16:52:06.289Z,100516.35
2018-10-05T16:54:36.287Z,100514.38
2018-10-05T16:57:06.271Z,100508.70
2018-10-05T16:59:36.191Z,100514.48
2018-10-05T17:02:07.146Z,100510.89
2018-10-05T17:04:37.005Z,100507.83
2018-10-05T17:07:07.160Z,100506.39
2018-10-05T17:09:37.175Z,100504.92
2018-10-05T17:12:07.114Z,100505.83
2018-10-05T17:14:37.076Z,100500.01
2018-10-05T17:17:07.150Z,100509.11
2018-10-05T17:19:37.148Z,100511.63
2018-10-05T17:22:07.157Z,100515.77
2018-10-05T17:24:37.158Z,100514.66
2018-10-05T17:27:07.527Z,100512.22
2018-10-05T17:29:37.915Z,100510.91
2018-10-05T17:32:07.895Z,100508.84
2018-10-05T17:34:38.399Z,100516.95
2018-10-05T17:37:10.399Z,100519.27
2018-10-05T17:39:40.361Z,100515.97
2018-10-05T17:42:10.963Z,100513.94
2018-10-05T17:44:40.947Z,100515.84
2018-10-05T17:47:10.853Z,100514.59
2018-10-05T17:49:40.866Z,100517.30
2018-10-05T17:52:10.714Z,100519.05
2018-10-05T17:54:40.727Z,100514.61
2018-10-05T17:57:10.692Z,100517.16
2018-10-05T17:59:40.680Z,100514.69
2018-10-05T18:02:10.618Z,100526.59
2018-10-05T18:04:40.586Z,100519.37
2018-10-05T18:07:10.565Z,100517.92
2018-10-05T18:09:40.565Z,100520.08
2018-10-05T18:12:10.498Z,100520.05
2018-10-05T18:14:40.684Z,100516.03
2018-10-05T18:17:10.575Z,100515.61
2018-10-05T18:19:41.344Z,100519.58
2018-10-05T18:22:11.362Z,100522.15
2018-10-05T18:24:41.352Z,100510.80
2018-10-05T18:27:11.350Z,100511.98
2018-10-05T18:29:41.305Z,100513.58
2018-10-05T18:32:11.848Z,100515.58
2018-10-05T18:34:41.786Z,100508.98
2018-10-05T18:37:11.713Z,100508.98
2018-10-05T18:39:41.706Z,100506.38
2018-10-05T18:42:11.707Z,100510.92
2018-10-05T18:44:41.787Z,100504.93
2018-10-05T18:47:11.749Z,100504.51
2018-10-05T18:49:41.734Z,100508.27
2018-10-05T18:52:11.702Z,100504.45
2018-10-05T18:54:41.695Z,100504.03
2018-10-05T18:57:19.359Z,100505.82
2018-10-05T18:59:49.536Z,100502.00
2018-10-05T19:02:20.063Z,100502.19
2018-10-05T19:04:50.142Z,100509.52
2018-10-05T19:07:20.122Z,100508.52
2018-10-05T19:09:50.118Z,100508.09
2018-10-05T19:12:20.005Z,100505.25
2018-10-05T19:14:50.381Z,100507.61
2018-10-05T19:17:20.339Z,100510.94
2018-10-05T19:19:50.988Z,100515.08
2018-10-05T19:22:20.904Z,100509.81
2018-10-05T19:24:50.882Z,100508.97
2018-10-05T19:27:20.766Z,100509.30
2018-10-05T19:29:50.859Z,100514.02
2018-10-05T19:32:20.890Z,100506.59
2018-10-05T19:34:50.887Z,100507.92
2018-10-05T19:37:20.889Z,100503.44
2018-10-05T19:39:50.960Z,100497.02
2018-10-05T19:42:20.992Z,100492.81
2018-10-05T19:44:51.025Z,100492.17
2018-10-05T19:47:20.998Z,100490.92
2018-10-05T19:49:51.039Z,100488.11
2018-10-05T19:52:21.067Z,100486.08
2018-10-05T19:54:51.115Z,100488.79
2018-10-05T19:57:21.128Z,100496.13
2018-10-05T19:59:51.200Z,100488.53
2018-10-05T20:02:21.145Z,100484.30
2018-10-05T20:04:51.176Z,100480.05
2018-10-05T20:07:21.204Z,100482.20
2018-10-05T20:09:51.390Z,100481.34
2018-10-05T20:12:21.369Z,100473.31
2018-10-05T20:14:51.430Z,100476.63
2018-10-05T20:17:21.383Z,100476.16
2018-10-05T20:19:51.346Z,100480.39
2018-10-05T20:22:21.322Z,100481.52
2018-10-05T20:24:51.385Z,100478.84
2018-10-05T20:27:21.431Z,100480.33
2018-10-05T20:29:51.468Z,100474.63
2018-10-05T20:32:21.510Z,100467.98
2018-10-05T20:34:51.480Z,100468.05
2018-10-05T20:37:21.581Z,100467.17
2018-10-05T20:39:51.487Z,100462.53
2018-10-05T20:42:21.494Z,100459.03
2018-10-05T20:44:51.500Z,100463.50
2018-10-05T20:47:21.496Z,100469.57
2018-10-05T20:49:51.471Z,100467.45
2018-10-05T20:52:21.498Z,100460.02
2018-10-05T20:54:51.469Z,100457.98
2018-10-05T20:57:21.520Z,100459.42
2018-10-05T20:59:51.487Z,100459.94
2018-10-05T21:02:21.498Z,100461.63
2018-10-05T21:04:51.509Z,100459.74
2018-10-05T21:07:21.495Z,100469.97
2018-10-05T21:09:52.083Z,100459.95
2018-10-05T21:12:22.096Z,100461.28
2018-10-05T21:14:52.081Z,100464.54
2018-10-05T21:17:22.126Z,100463.09
2018-10-05T21:19:52.140Z,100467.17
2018-10-05T21:22:22.158Z,100460.17
2018-10-05T21:24:52.163Z,100470.17
2018-10-05T21:27:22.152Z,100463.75
2018-10-05T21:29:52.192Z,100464.03
2018-10-05T21:32:22.402Z,100464.26
2018-10-05T21:34:52.577Z,100466.38
2018-10-05T21:37:23.566Z,100459.72
2018-10-05T21:39:53.571Z,100468.92
2018-10-05T21:42:23.581Z,100472.20
2018-10-05T21:44:53.614Z,100468.33
2018-10-05T21:47:25.974Z,100466.63
2018-10-05T21:49:55.958Z,100464.70
2018-10-05T21:52:26.033Z,100460.25
2018-10-05T21:54:55.975Z,100464.31
2018-10-05T21:57:25.906Z,100461.82
2018-10-05T21:59:55.883Z,100458.75
2018-10-05T22:02:29.881Z,100462.22
2018-10-05T22:04:59.829Z,100462.14
2018-10-05T22:07:29.789Z,100463.44
2018-10-05T22:09:59.719Z,100460.22
2018-10-05T22:12:30.271Z,100459.33
2018-10-05T22:15:00.191Z,100457.05
2018-10-05T22:17:30.174Z,100456.39
2018-10-05T22:20:00.218Z,100457.10
2018-10-05T22:22:30.246Z,100450.11
2018-10-05T22:25:00.201Z,100456.33
2018-10-05T22:27:30.164Z,100451.28
2018-10-05T22:30:00.023Z,100459.52
2018-10-05T22:32:30.011Z,100461.02
2018-10-05T22:35:00.031Z,100449.65
2018-10-05T22:37:29.951Z,100444.23
2018-10-05T22:39:59.869Z,100445.77
2018-10-05T22:42:29.883Z,100443.70
2018-10-05T22:44:59.883Z,100440.83
2018-10-05T22:47:29.864Z,100439.00
2018-10-05T22:49:59.859Z,100444.63
2018-10-05T22:52:29.968Z,100440.17
2018-10-05T22:55:01.823Z,100438.68
2018-10-05T22:57:33.584Z,100435.46
2018-10-05T23:00:04.374Z,100440.55
2018-10-05T23:02:34.375Z,100430.56
2018-10-05T23:05:04.388Z,100433.44
2018-10-05T23:07:34.355Z,100436.70
2018-10-05T23:10:04.366Z,100431.88
2018-10-05T23:12:34.355Z,100427.27
2018-10-05T23:15:04.614Z,100436.84
2018-10-05T23:17:34.589Z,100431.01
2018-10-05T23:20:04.633Z,100433.09
2018-10-05T23:22:35.107Z,100429.06
2018-10-05T23:25:05.959Z,100426.66
2018-10-05T23:27:35.920Z,100423.78
2018-10-05T23:30:05.894Z,100420.94
2018-10-05T23:32:35.946Z,100423.25
2018-10-05T23:35:07.648Z,100416.67
2018-10-05T23:37:38.661Z,100416.79
2018-10-05T23:40:08.592Z,100415.55
2018-10-05T23:42:38.621Z,100411.28
2018-10-05T23:45:08.602Z,100409.23
2018-10-05T23:47:39.440Z,100403.24
2018-10-05T23:50:09.426Z,100403.50
2018-10-05T23:52:47.517Z,100400.51
2018-10-05T23:55:18.619Z,100399.60
2018-10-05T23:57:48.949Z,100398.36
